createdAt,value
2017-10-13T00:00:03.142Z,1022.81
2017-10-13T00:05:03.430Z,1022.84
2017-10-13T00:10:03.010Z,1022.76
2017-10-13T00:15:03.485Z,1022.75
2017-10-13T00:20:03.035Z,1022.78
2017-10-13T00:25:03.498Z,1022.76
2017-10-13T00:30:02.981Z,1022.87
2017-10-13T00:35:03.329Z,1022.83
2017-10-13T00:40:02.787Z,1022.74
2017-10-13T00:45:03.122Z,1022.72
2017-10-13T00:50:03.632Z,1022.7
2017-10-13T00:55:02.981Z,1022.66
2017-10-13T01:00:03.515Z,1022.7
2017-10-13T01:05:03.021Z,1022.69
2017-10-13T01:10:03.584Z,1022.59
2017-10-13T01:15:02.971Z,1022.57
2017-10-13T01:20:03.383Z,1022.81
2017-10-13T01:25:02.746Z,1022.78
2017-10-13T01:30:03.219Z,1022.81
2017-10-13T01:40:03.301Z,1022.84
2017-10-13T01:45:03.651Z,1022.88
2017-10-13T01:50:03.110Z,1022.86
2017-10-13T01:55:02.684Z,1022.91
2017-10-13T02:00:03.055Z,1022.84
2017-10-13T02:05:03.458Z,1022.87
2017-10-13T02:10:02.955Z,1022.89
2017-10-13T02:15:03.459Z,1022.86
2017-10-13T02:20:02.789Z,1022.88
2017-10-13T02:25:03.313Z,1022.84
2017-10-13T02:30:02.787Z,1022.92
2017-10-13T02:35:03.300Z,1022.85
2017-10-13T02:40:02.858Z,1022.88
2017-10-13T02:45:03.294Z,1022.88
2017-10-13T02:50:02.859Z,1022.88
2017-10-13T02:55:03.265Z,1022.81
2017-10-13T03:00:03.575Z,1022.86
2017-10-13T03:05:03.098Z,1022.84
2017-10-13T03:10:03.546Z,1022.75
2017-10-13T03:15:02.938Z,1022.76
2017-10-13T03:20:03.432Z,1022.71
2017-10-13T03:25:02.948Z,1022.74
2017-10-13T03:30:03.458Z,1022.72
2017-10-13T03:35:03.025Z,1022.67
2017-10-13T03:40:03.454Z,1022.68
2017-10-13T03:45:02.804Z,1022.77
2017-10-13T03:50:03.372Z,1022.92
2017-10-13T03:55:02.882Z,1022.99
2017-10-13T04:00:03.380Z,1023.05
2017-10-13T04:05:02.807Z,1023.11
2017-10-13T04:10:03.236Z,1023.04
2017-10-13T04:15:02.766Z,1022.93
2017-10-13T04:20:03.360Z,1022.96
2017-10-13T04:25:02.916Z,1022.88
2017-10-13T04:30:03.497Z,1023.01
2017-10-13T04:35:02.842Z,1022.95
2017-10-13T04:40:03.337Z,1022.96
2017-10-13T04:45:02.731Z,1022.94
2017-10-13T04:50:03.206Z,1023.01
2017-10-13T04:55:03.680Z,1023.07
2017-10-13T05:00:03.083Z,1023.11
2017-10-13T05:05:03.607Z,1023.07
2017-10-13T05:10:03.149Z,1023.02
2017-10-13T05:15:03.663Z,1023.07
2017-10-13T05:20:03.232Z,1023.02
2017-10-13T05:25:03.632Z,1022.96
2017-10-13T05:30:03.106Z,1022.99
2017-10-13T05:35:03.536Z,1023.06
2017-10-13T05:40:02.983Z,1022.95
2017-10-13T05:45:03.459Z,1022.89
2017-10-13T05:50:02.950Z,1022.94
2017-10-13T05:55:03.339Z,1022.91
2017-10-13T06:00:02.792Z,1022.93
2017-10-13T06:05:03.339Z,1022.87
2017-10-13T06:10:02.780Z,1022.83
2017-10-13T06:15:03.210Z,1022.93
2017-10-13T06:20:02.690Z,1023.02
2017-10-13T06:25:03.032Z,1022.95
2017-10-13T06:30:03.533Z,1023.1
2017-10-13T06:35:03.073Z,1023.07
2017-10-13T06:40:02.675Z,1023.03
2017-10-13T06:45:03.032Z,1023.06
2017-10-13T06:50:03.445Z,1023.08
2017-10-13T06:55:02.884Z,1023.09
2017-10-13T07:00:03.232Z,1023.19
2017-10-13T07:05:02.599Z,1023.05
2017-10-13T07:10:03.143Z,1023.24
2017-10-13T07:15:02.638Z,1023.4
2017-10-13T07:20:03.110Z,1023.48
2017-10-13T07:25:03.466Z,1023.51
2017-10-13T07:30:03.003Z,1023.51
2017-10-13T07:35:03.360Z,1023.55
2017-10-13T07:40:02.849Z,1023.5
2017-10-13T07:45:03.384Z,1023.54
2017-10-13T07:50:02.724Z,1023.49
2017-10-13T07:55:03.207Z,1023.51
2017-10-13T08:00:03.636Z,1023.4
2017-10-13T08:05:03.017Z,1023.45
2017-10-13T08:10:03.586Z,1023.56
2017-10-13T08:15:02.919Z,1023.6
2017-10-13T08:20:03.430Z,1023.7
2017-10-13T08:25:02.786Z,1023.72
2017-10-13T08:30:03.209Z,1023.83
2017-10-13T08:35:03.573Z,1023.68
2017-10-13T08:40:03.071Z,1023.84
2017-10-13T08:45:03.611Z,1023.8
2017-10-13T08:50:03.001Z,1023.76
2017-10-13T08:55:03.368Z,1023.81
2017-10-13T09:00:02.746Z,1023.91
2017-10-13T09:05:03.300Z,1023.99
2017-10-13T09:10:02.842Z,1023.93
2017-10-13T09:15:03.356Z,1024.05
2017-10-13T09:20:02.757Z,1024.04
2017-10-13T09:25:03.218Z,1024.04
2017-10-13T09:30:03.613Z,1024.12
2017-10-13T09:35:03.051Z,1024.14
2017-10-13T09:40:03.549Z,1024.14
2017-10-13T09:45:03.050Z,1024.23
2017-10-13T09:50:03.514Z,1024.32
2017-10-13T09:55:02.828Z,1024.23
2017-10-13T10:00:03.124Z,1024.28
2017-10-13T10:05:03.577Z,1024.06
2017-10-13T10:10:02.998Z,1024.17
2017-10-13T10:15:03.360Z,1024.21
2017-10-13T10:20:02.837Z,1024.18
2017-10-13T10:25:03.369Z,1024.14
2017-10-13T10:30:02.917Z,1024.2
2017-10-13T10:35:03.438Z,1024.17
2017-10-13T10:40:02.864Z,1024.24
2017-10-13T10:45:03.405Z,1024.24
2017-10-13T10:50:02.939Z,1024.14
2017-10-13T10:55:03.329Z,1024.11
2017-10-13T11:00:02.738Z,1024.04
2017-10-13T11:05:03.211Z,1024.13
2017-10-13T11:10:02.729Z,1024.01
2017-10-13T11:15:03.096Z,1024.06
2017-10-13T11:20:03.521Z,1023.99
2017-10-13T11:25:02.975Z,1023.97
2017-10-13T11:30:03.437Z,1023.96
2017-10-13T11:35:02.840Z,1023.89
2017-10-13T11:40:03.641Z,1023.93
2017-10-13T11:45:03.167Z,1023.85
2017-10-13T11:50:03.586Z,1023.83
2017-10-13T11:55:03.082Z,1023.9
2017-10-13T12:00:03.401Z,1023.83
2017-10-13T12:05:02.855Z,1023.8
2017-10-13T12:10:03.268Z,1023.79
2017-10-13T12:15:02.654Z,1023.84
2017-10-13T12:20:03.213Z,1023.82
2017-10-13T12:25:02.643Z,1023.75
2017-10-13T12:30:03.171Z,1023.68
2017-10-13T12:35:03.487Z,1023.72
2017-10-13T12:40:02.916Z,1023.71
2017-10-13T12:45:03.308Z,1023.74
2017-10-13T12:50:02.818Z,1023.69
2017-10-13T12:55:03.176Z,1023.76
2017-10-13T13:00:02.694Z,1023.7
2017-10-13T13:05:03.202Z,1023.64
2017-10-13T13:10:02.766Z,1023.72
2017-10-13T13:15:03.280Z,1023.55
2017-10-13T13:20:02.829Z,1023.7
2017-10-13T13:25:03.376Z,1023.6
2017-10-13T13:30:02.876Z,1023.68
2017-10-13T13:35:03.338Z,1023.72
2017-10-13T13:40:02.983Z,1023.77
2017-10-13T13:45:03.336Z,1023.85
2017-10-13T13:50:02.841Z,1023.83
2017-10-13T13:55:03.408Z,1023.88
2017-10-13T14:00:02.923Z,1023.81
2017-10-13T14:05:03.376Z,1023.74
2017-10-13T14:10:02.873Z,1023.65
2017-10-13T14:15:03.313Z,1023.65
2017-10-13T14:20:02.726Z,1023.65
2017-10-13T14:25:03.174Z,1023.65
2017-10-13T14:30:03.603Z,1023.67
2017-10-13T14:35:03.021Z,1023.53
2017-10-13T14:40:03.587Z,1023.54
2017-10-13T14:45:03.111Z,1023.56
2017-10-13T14:50:03.582Z,1023.5
2017-10-13T14:55:03.013Z,1023.46
2017-10-13T15:00:03.517Z,1023.44
2017-10-13T15:05:02.901Z,1023.43
2017-10-13T15:10:03.468Z,1023.48
2017-10-13T15:15:02.866Z,1023.51
2017-10-13T15:20:03.392Z,1023.57
2017-10-13T15:25:02.985Z,1023.54
2017-10-13T15:30:03.527Z,1023.53
2017-10-13T15:35:02.970Z,1023.51
2017-10-13T15:40:03.442Z,1023.46
2017-10-13T15:45:02.975Z,1023.52
2017-10-13T15:50:03.374Z,1023.58
2017-10-13T15:55:02.805Z,1023.63
2017-10-13T16:00:03.349Z,1023.66
2017-10-13T16:05:02.774Z,1023.67
2017-10-13T16:10:03.310Z,1023.63
2017-10-13T16:15:02.717Z,1023.65
2017-10-13T16:20:03.123Z,1023.72
2017-10-13T16:25:03.542Z,1023.66
2017-10-13T16:30:02.898Z,1023.72
2017-10-13T16:35:03.321Z,1023.76
2017-10-13T16:40:02.789Z,1023.71
2017-10-13T16:45:03.329Z,1023.73
2017-10-13T16:50:02.783Z,1023.73
2017-10-13T16:55:03.278Z,1023.77
2017-10-13T17:00:02.679Z,1023.69
2017-10-13T17:05:03.073Z,1023.72
2017-10-13T17:10:02.706Z,1023.79
2017-10-13T17:15:03.126Z,1023.81
2017-10-13T17:20:02.644Z,1023.76
2017-10-13T17:25:03.066Z,1023.81
2017-10-13T17:30:03.588Z,1023.82
2017-10-13T17:35:02.996Z,1023.8
2017-10-13T17:40:03.536Z,1023.77
2017-10-13T17:45:02.910Z,1023.75
2017-10-13T17:50:03.415Z,1023.9
2017-10-13T17:55:02.803Z,1023.84
2017-10-13T18:00:03.288Z,1023.91
2017-10-13T18:05:02.867Z,1023.86
2017-10-13T18:10:03.390Z,1023.84
2017-10-13T18:15:02.869Z,1023.87
2017-10-13T18:20:03.439Z,1023.91
2017-10-13T18:30:03.609Z,1023.93
2017-10-13T18:35:03.160Z,1023.97
2017-10-13T18:40:02.698Z,1023.98
2017-10-13T18:45:03.187Z,1023.9
2017-10-13T18:50:02.684Z,1023.94
2017-10-13T18:55:03.199Z,1024
2017-10-13T19:00:03.629Z,1023.94
2017-10-13T19:05:03.146Z,1023.96
2017-10-13T19:10:02.706Z,1024
2017-10-13T19:15:03.131Z,1024.04
2017-10-13T19:20:02.698Z,1024.07
2017-10-13T19:25:03.120Z,1024.04
2017-10-13T19:30:03.545Z,1024.16
2017-10-13T19:35:02.976Z,1024.2
2017-10-13T19:40:03.433Z,1024.22
2017-10-13T19:45:02.926Z,1024.2
2017-10-13T19:50:03.436Z,1024.18
2017-10-13T19:55:02.808Z,1024.23
2017-10-13T20:00:03.401Z,1024.18
2017-10-13T20:05:02.850Z,1024.18
2017-10-13T20:10:03.340Z,1024.17
2017-10-13T20:15:02.877Z,1024.19
2017-10-13T20:20:03.324Z,1024.17
2017-10-13T20:25:02.824Z,1024.18
2017-10-13T20:30:03.233Z,1024.2
2017-10-13T20:35:02.776Z,1024.18
2017-10-13T20:40:03.285Z,1024.21
2017-10-13T20:45:02.900Z,1024.29
2017-10-13T20:50:03.448Z,1024.3
2017-10-13T20:55:02.973Z,1024.28
2017-10-13T21:00:03.394Z,1024.26
2017-10-13T21:05:02.790Z,1024.27
2017-10-13T21:10:03.285Z,1024.32
2017-10-13T21:15:03.621Z,1024.32
2017-10-13T21:20:03.003Z,1024.31
2017-10-13T21:25:03.506Z,1024.28
2017-10-13T21:30:03.201Z,1024.28
2017-10-13T21:35:02.741Z,1024.27
2017-10-13T21:40:03.236Z,1024.29
2017-10-13T21:45:02.694Z,1024.29
2017-10-13T21:50:03.141Z,1024.34
2017-10-13T21:55:03.510Z,1024.27
2017-10-13T22:00:02.968Z,1024.33
2017-10-13T22:05:03.350Z,1024.31
2017-10-13T22:10:02.825Z,1024.33
2017-10-13T22:15:03.310Z,1024.34
2017-10-13T22:20:02.761Z,1024.38
2017-10-13T22:25:03.262Z,1024.33
2017-10-13T22:30:02.746Z,1024.34
2017-10-13T22:35:03.266Z,1024.37
2017-10-13T22:40:02.809Z,1024.38
2017-10-13T22:45:03.164Z,1024.38
2017-10-13T22:50:03.558Z,1024.37
2017-10-13T22:55:03.122Z,1024.4
2017-10-13T23:00:04.381Z,1024.39
2017-10-13T23:05:02.995Z,1024.47
2017-10-13T23:10:03.585Z,1024.45
2017-10-13T23:15:03.066Z,1024.45
2017-10-13T23:20:03.502Z,1024.54
2017-10-13T23:25:02.936Z,1024.53
2017-10-13T23:30:03.395Z,1024.49
2017-10-13T23:35:02.843Z,1024.49
2017-10-13T23:40:03.316Z,1024.47
2017-10-13T23:45:02.633Z,1024.42
2017-10-13T23:50:03.029Z,1024.37
2017-10-13T23:55:03.498Z,1024.43
